createdAt,value
2019-05-21T00:00:10.693Z,41.47
2019-05-21T00:02:40.091Z,41.83
2019-05-21T00:05:09.970Z,43.47
2019-05-21T00:07:39.815Z,39.93
2019-05-21T00:10:10.030Z,45.77
2019-05-21T00:12:39.428Z,46.03
2019-05-21T00:15:09.424Z,44.33
2019-05-21T00:17:40.358Z,44.33
2019-05-21T00:20:10.749Z,40.50
2019-05-21T00:22:40.460Z,44.97
2019-05-21T00:25:10.353Z,43.43
2019-05-21T00:27:39.865Z,42.47
2019-05-21T00:31:04.237Z,46.03
2019-05-21T00:34:42.876Z,41.27
2019-05-21T00:37:53.868Z,44.20
2019-05-21T00:41:18.203Z,39.47
2019-05-21T00:43:54.866Z,45.73
2019-05-21T00:46:25.793Z,40.67
2019-05-21T00:48:55.153Z,38.87
2019-05-21T00:51:24.577Z,40.93
2019-05-21T00:53:53.964Z,38.87
2019-05-21T00:56:23.338Z,34.60
2019-05-21T00:58:52.733Z,28.77
2019-05-21T01:01:22.171Z,33.47
2019-05-21T01:03:51.533Z,28.83
2019-05-21T01:06:23.127Z,24.03
2019-05-21T01:08:52.501Z,23.80
2019-05-21T01:11:21.873Z,25.30
2019-05-21T01:13:51.299Z,20.03
2019-05-21T01:16:20.678Z,18.00
2019-05-21T01:18:51.261Z,17.07
2019-05-21T01:21:20.656Z,14.28
2019-05-21T01:23:50.013Z,13.33
2019-05-21T01:26:19.382Z,12.63
2019-05-21T01:28:48.765Z,11.80
2019-05-21T01:31:18.153Z,10.60
2019-05-21T01:33:47.510Z,9.37
2019-05-21T01:36:17.331Z,7.83
2019-05-21T01:38:46.690Z,8.63
2019-05-21T01:41:16.062Z,6.93
2019-05-21T01:43:45.442Z,7.07
2019-05-21T01:46:14.876Z,6.67
2019-05-21T01:48:44.227Z,6.77
2019-05-21T01:51:13.635Z,7.20
2019-05-21T02:14:43.626Z,7.63
2019-05-21T02:17:12.991Z,9.47
2019-05-21T02:19:42.385Z,8.50
2019-05-21T02:22:11.762Z,8.40
2019-05-21T02:24:41.132Z,11.83
2019-05-21T02:27:12.161Z,10.40
2019-05-21T02:29:42.219Z,9.93
2019-05-21T02:32:11.591Z,10.18
2019-05-21T02:34:40.953Z,11.83
2019-05-21T02:37:10.378Z,11.63
2019-05-21T02:39:39.740Z,13.60
2019-05-21T02:42:09.100Z,13.23
2019-05-21T02:44:38.661Z,11.77
2019-05-21T02:47:08.035Z,13.53
2019-05-21T02:49:37.422Z,13.33
2019-05-21T02:52:06.911Z,11.83
2019-05-21T02:54:41.149Z,12.83
2019-05-21T02:57:07.373Z,12.00
2019-05-21T02:59:37.437Z,12.07
2019-05-21T03:02:17.001Z,15.33
2019-05-21T03:04:46.402Z,11.67
2019-05-21T03:07:18.838Z,12.67
2019-05-21T03:09:51.128Z,11.73
2019-05-21T03:12:20.685Z,12.43
2019-05-21T03:14:50.057Z,13.30
2019-05-21T03:17:19.420Z,12.47
2019-05-21T03:19:49.653Z,10.67
2019-05-21T03:22:19.051Z,10.80
2019-05-21T03:24:48.416Z,10.33
2019-05-21T03:27:17.805Z,10.33
2019-05-21T03:29:47.172Z,11.10
2019-05-21T03:32:16.632Z,9.97
2019-05-21T03:34:46.045Z,8.83
2019-05-21T03:37:15.400Z,9.47
2019-05-21T03:39:44.783Z,9.47
2019-05-21T03:42:16.579Z,8.43
2019-05-21T03:44:58.901Z,9.97
2019-05-21T03:47:17.337Z,8.13
2019-05-21T03:49:46.781Z,8.80
2019-05-21T03:52:16.218Z,8.60
2019-05-21T03:54:45.579Z,9.53
2019-05-21T03:57:14.964Z,10.43
2019-05-21T03:59:44.327Z,8.50
2019-05-21T04:02:13.688Z,10.67
2019-05-21T04:04:43.091Z,11.57
2019-05-21T04:07:12.457Z,9.73
2019-05-21T04:09:41.822Z,9.50
2019-05-21T04:12:11.224Z,9.97
2019-05-21T04:14:48.330Z,13.60
2019-05-21T04:17:19.355Z,13.77
2019-05-21T04:19:50.087Z,13.20
2019-05-21T04:22:19.840Z,11.63
2019-05-21T04:24:49.316Z,8.70
2019-05-21T04:27:18.658Z,9.27
2019-05-21T04:29:48.030Z,8.90
2019-05-21T04:32:17.433Z,9.10
2019-05-21T04:34:46.795Z,8.80
2019-05-21T04:37:17.442Z,9.63
2019-05-21T04:39:47.074Z,8.37
2019-05-21T04:42:16.396Z,8.47
2019-05-21T04:44:45.764Z,12.70
2019-05-21T04:47:15.447Z,8.90
2019-05-21T04:49:44.816Z,8.93
2019-05-21T04:52:14.171Z,11.17
2019-05-21T04:54:43.559Z,15.83
2019-05-21T04:57:12.928Z,9.67
2019-05-21T04:59:42.286Z,11.17
2019-05-21T05:02:11.665Z,10.67
2019-05-21T05:04:41.032Z,9.00
2019-05-21T05:07:26.451Z,9.37
2019-05-21T05:09:41.866Z,8.53
2019-05-21T05:12:11.237Z,9.03
2019-05-21T05:14:40.605Z,8.50
2019-05-21T05:17:09.989Z,12.07
2019-05-21T05:19:39.362Z,6.80
2019-05-21T05:22:08.728Z,7.03
2019-05-21T05:24:38.404Z,9.13
2019-05-21T05:27:07.773Z,9.23
2019-05-21T05:29:37.135Z,8.57
2019-05-21T05:32:06.613Z,6.33
2019-05-21T05:34:35.979Z,7.70
2019-05-21T05:37:05.334Z,6.20
2019-05-21T05:39:34.787Z,7.70
2019-05-21T05:42:04.149Z,5.07
2019-05-21T05:44:33.518Z,5.90
2019-05-21T05:47:02.910Z,5.37
2019-05-21T05:49:33.914Z,5.17
2019-05-21T05:52:03.269Z,4.90
2019-05-21T05:54:32.672Z,5.13
2019-05-21T05:57:02.037Z,6.10
2019-05-21T05:59:31.399Z,6.30
2019-05-21T06:02:00.799Z,4.83
2019-05-21T06:04:30.672Z,4.47
2019-05-21T06:07:00.118Z,5.57
2019-05-21T06:09:29.506Z,11.13
2019-05-21T06:11:58.864Z,4.67
2019-05-21T06:14:28.244Z,3.57
2019-05-21T06:16:57.714Z,4.47
2019-05-21T06:19:27.083Z,3.53
2019-05-21T06:21:56.475Z,4.27
2019-05-21T06:24:25.857Z,6.80
2019-05-21T06:26:55.220Z,4.37
2019-05-21T06:29:24.598Z,6.80
2019-05-21T06:31:53.980Z,7.67
2019-05-21T06:34:23.351Z,5.67
2019-05-21T06:36:52.755Z,5.60
2019-05-21T06:39:22.218Z,8.77
2019-05-21T06:41:51.598Z,5.77
2019-05-21T06:44:20.977Z,6.33
2019-05-21T06:46:50.358Z,6.20
2019-05-21T06:49:39.099Z,6.30
2019-05-21T06:52:08.494Z,6.20
2019-05-21T06:54:37.886Z,6.57
2019-05-21T06:57:07.339Z,7.30
2019-05-21T06:59:36.825Z,6.77
2019-05-21T07:02:06.232Z,6.70
2019-05-21T07:04:35.676Z,6.77
2019-05-21T07:07:05.163Z,6.87
2019-05-21T07:09:34.549Z,10.70
2019-05-21T07:12:03.986Z,6.57
2019-05-21T07:14:33.398Z,7.33
2019-05-21T07:17:02.781Z,7.57
2019-05-21T07:19:32.210Z,9.90
2019-05-21T07:22:12.009Z,5.90
2019-05-21T07:24:33.139Z,6.20
2019-05-21T07:27:02.576Z,5.63
2019-05-21T07:29:32.020Z,6.37
2019-05-21T07:32:01.450Z,6.00
2019-05-21T07:34:30.807Z,5.33
2019-05-21T07:37:00.210Z,7.10
2019-05-21T07:39:29.602Z,5.37
2019-05-21T07:41:58.993Z,7.10
2019-05-21T07:44:28.810Z,6.73
2019-05-21T07:46:58.187Z,4.63
2019-05-21T07:49:27.559Z,5.23
2019-05-21T07:51:56.997Z,9.63
2019-05-21T07:54:28.182Z,5.23
2019-05-21T07:56:57.658Z,4.87
2019-05-21T07:59:27.085Z,10.67
2019-05-21T08:01:56.489Z,5.33
2019-05-21T08:04:25.909Z,5.53
2019-05-21T08:06:55.280Z,5.90
2019-05-21T08:09:24.650Z,10.83
2019-05-21T08:11:54.062Z,7.30
2019-05-21T08:14:23.474Z,7.03
2019-05-21T08:16:52.860Z,10.07
2019-05-21T08:19:23.794Z,6.17
2019-05-21T08:21:53.214Z,9.47
2019-05-21T08:24:22.603Z,11.03
2019-05-21T08:26:52.028Z,6.47
2019-05-21T08:29:21.504Z,7.67
2019-05-21T08:31:53.721Z,8.87
2019-05-21T08:34:23.103Z,7.70
2019-05-21T08:36:52.875Z,7.80
2019-05-21T08:39:28.911Z,8.33
2019-05-21T08:41:53.399Z,9.13
2019-05-21T08:44:23.157Z,9.63
2019-05-21T08:46:52.559Z,10.93
2019-05-21T08:49:21.958Z,12.43
2019-05-21T08:51:52.664Z,10.97
2019-05-21T08:54:23.666Z,18.20
2019-05-21T08:56:54.590Z,19.33
2019-05-21T08:59:24.464Z,16.73
2019-05-21T09:01:53.871Z,12.80
2019-05-21T09:04:45.019Z,13.17
2019-05-21T09:06:56.126Z,15.97
2019-05-21T09:09:25.507Z,17.53
2019-05-21T09:11:54.924Z,18.80
2019-05-21T09:14:24.348Z,21.00
2019-05-21T09:16:53.805Z,20.17
2019-05-21T09:19:23.204Z,22.13
2019-05-21T09:21:52.726Z,19.47
2019-05-21T09:24:22.114Z,28.63
2019-05-21T09:26:51.588Z,24.53
2019-05-21T09:29:20.998Z,20.80
2019-05-21T09:31:50.411Z,20.83
2019-05-21T09:34:22.884Z,22.57
2019-05-21T09:36:52.468Z,23.53
2019-05-21T09:39:21.874Z,23.50
2019-05-21T09:41:51.278Z,21.60
2019-05-21T09:44:20.727Z,22.47
2019-05-21T09:46:51.651Z,25.23
2019-05-21T09:49:21.124Z,24.27
2019-05-21T09:51:50.531Z,24.30
2019-05-21T09:54:19.902Z,26.97
2019-05-21T09:56:50.818Z,23.93
2019-05-21T09:59:39.985Z,22.43
2019-05-21T10:02:11.013Z,25.03
2019-05-21T10:04:40.452Z,20.03
2019-05-21T10:07:10.034Z,27.50
2019-05-21T10:09:39.430Z,23.00
2019-05-21T10:12:09.478Z,20.80
2019-05-21T10:14:38.883Z,24.27
2019-05-21T10:17:08.248Z,21.23
2019-05-21T10:19:37.638Z,19.03
2019-05-21T10:22:07.967Z,20.10
2019-05-21T10:24:37.648Z,18.57
2019-05-21T10:27:07.043Z,20.37
2019-05-21T10:29:36.465Z,18.67
2019-05-21T10:32:05.832Z,21.60
2019-05-21T10:34:35.225Z,26.60
2019-05-21T10:37:05.125Z,18.67
2019-05-21T10:39:34.488Z,20.33
2019-05-21T10:42:04.842Z,25.67
2019-05-21T10:44:34.857Z,17.90
2019-05-21T10:47:04.536Z,25.97
2019-05-21T10:49:33.922Z,21.43
2019-05-21T10:52:03.499Z,18.13
2019-05-21T10:54:32.870Z,19.43
2019-05-21T10:57:02.328Z,24.07
2019-05-21T10:59:31.694Z,21.00
2019-05-21T11:02:14.311Z,19.63
2019-05-21T11:04:45.436Z,17.83
2019-05-21T11:07:16.540Z,16.77
2019-05-21T11:09:45.909Z,21.20
2019-05-21T11:12:15.316Z,20.47
2019-05-21T11:14:44.691Z,21.40
2019-05-21T11:17:15.964Z,21.47
2019-05-21T11:19:45.998Z,17.60
2019-05-21T11:22:15.384Z,18.17
2019-05-21T11:24:44.773Z,18.83
2019-05-21T11:27:14.975Z,21.33
2019-05-21T11:29:44.357Z,22.40
2019-05-21T11:32:13.808Z,28.85
2019-05-21T11:34:43.317Z,20.33
2019-05-21T11:37:12.762Z,20.40
2019-05-21T11:39:42.593Z,20.90
2019-05-21T11:42:31.368Z,27.80
2019-05-21T11:45:00.762Z,23.87
2019-05-21T11:47:30.141Z,24.37
2019-05-21T11:49:59.613Z,24.73
2019-05-21T11:52:28.973Z,24.00
2019-05-21T11:54:58.491Z,24.80
2019-05-21T11:57:27.875Z,23.75
2019-05-21T11:59:57.292Z,27.57
2019-05-21T12:02:26.683Z,25.03
2019-05-21T12:04:56.218Z,27.83
2019-05-21T12:07:25.601Z,23.43
2019-05-21T12:09:55.644Z,24.10
2019-05-21T12:12:25.397Z,27.13
2019-05-21T12:14:54.867Z,25.87
2019-05-21T12:17:24.302Z,24.00
2019-05-21T12:19:55.359Z,38.90
2019-05-21T12:22:24.828Z,24.20
2019-05-21T12:24:54.297Z,23.43
2019-05-21T12:27:23.724Z,28.40
2019-05-21T12:29:53.273Z,21.87
2019-05-21T12:32:22.649Z,22.07
2019-05-21T12:34:52.059Z,19.37
2019-05-21T12:37:21.442Z,20.90
2019-05-21T12:39:50.843Z,22.37
2019-05-21T12:42:21.374Z,20.97
2019-05-21T12:44:50.788Z,18.67
2019-05-21T12:47:20.173Z,19.67
2019-05-21T12:49:49.983Z,20.93
2019-05-21T12:52:19.548Z,19.53
2019-05-21T12:54:49.040Z,22.40
2019-05-21T12:57:18.410Z,23.90
2019-05-21T12:59:47.788Z,25.63
2019-05-21T13:02:17.160Z,23.33
2019-05-21T13:04:46.647Z,22.60
2019-05-21T13:07:16.058Z,23.07
2019-05-21T13:09:45.410Z,25.37
2019-05-21T13:12:14.869Z,21.80
2019-05-21T13:14:44.283Z,36.30
2019-05-21T13:17:13.739Z,22.43
2019-05-21T13:19:43.132Z,21.77
2019-05-21T13:22:13.431Z,20.73
2019-05-21T13:24:42.888Z,19.27
2019-05-21T13:27:12.315Z,18.20
2019-05-21T13:29:41.763Z,18.50
2019-05-21T13:32:11.216Z,18.63
2019-05-21T13:34:41.309Z,17.97
2019-05-21T13:37:10.804Z,25.40
2019-05-21T13:39:49.488Z,22.77
2019-05-21T13:42:13.060Z,20.73
2019-05-21T13:44:42.836Z,20.40
2019-05-21T13:47:12.242Z,19.63
2019-05-21T13:49:41.729Z,17.87
2019-05-21T13:52:11.162Z,18.60
2019-05-21T13:54:40.563Z,19.67
2019-05-21T13:57:09.974Z,19.10
2019-05-21T13:59:39.348Z,18.67
2019-05-21T14:02:10.669Z,18.67
2019-05-21T14:04:40.199Z,17.77
2019-05-21T14:07:09.649Z,19.80
2019-05-21T14:09:39.020Z,16.27
2019-05-21T14:12:09.072Z,21.50
2019-05-21T14:14:38.455Z,17.93
2019-05-21T14:17:08.594Z,19.43
2019-05-21T14:19:38.374Z,20.60
2019-05-21T14:22:08.146Z,17.35
2019-05-21T14:24:37.533Z,17.17
2019-05-21T14:27:07.238Z,20.80
2019-05-21T14:29:36.647Z,19.07
2019-05-21T14:32:06.165Z,25.73
2019-05-21T14:34:35.583Z,17.93
2019-05-21T14:37:05.131Z,19.53
2019-05-21T14:39:34.544Z,17.60
2019-05-21T14:42:04.448Z,17.63
2019-05-21T14:44:33.812Z,21.07
2019-05-21T14:47:03.207Z,18.00
2019-05-21T14:49:32.680Z,21.87
2019-05-21T14:52:02.069Z,18.97
2019-05-21T14:54:31.442Z,17.40
2019-05-21T14:57:02.503Z,20.47
2019-05-21T14:59:31.875Z,21.53
2019-05-21T15:02:01.262Z,20.03
2019-05-21T15:04:30.929Z,20.67
2019-05-21T15:07:00.653Z,18.03
2019-05-21T15:09:30.232Z,16.73
2019-05-21T15:11:59.664Z,19.83
2019-05-21T15:14:29.151Z,20.60
2019-05-21T15:16:58.589Z,24.67
2019-05-21T15:19:28.027Z,20.93
2019-05-21T15:21:57.780Z,21.00
2019-05-21T15:24:27.170Z,18.50
2019-05-21T15:26:57.251Z,20.93
2019-05-21T15:29:26.724Z,20.83
2019-05-21T15:31:56.144Z,22.37
2019-05-21T15:34:25.526Z,21.83
2019-05-21T15:36:54.948Z,23.73
2019-05-21T15:39:24.345Z,21.97
2019-05-21T15:41:53.769Z,24.40
2019-05-21T15:44:23.150Z,25.13
2019-05-21T15:46:52.624Z,22.30
2019-05-21T15:49:35.733Z,24.43
2019-05-21T15:51:56.943Z,26.17
2019-05-21T15:54:26.307Z,26.73
2019-05-21T15:56:55.721Z,22.30
2019-05-21T15:59:25.110Z,24.90
2019-05-21T16:01:54.506Z,26.57
2019-05-21T16:04:23.943Z,26.90
2019-05-21T16:06:53.409Z,24.87
2019-05-21T16:09:22.828Z,19.23
2019-05-21T16:11:52.226Z,21.60
2019-05-21T16:14:21.626Z,24.03
2019-05-21T16:16:51.074Z,19.53
2019-05-21T16:19:20.480Z,62.60
2019-05-21T16:21:49.875Z,25.53
2019-05-21T16:24:19.271Z,24.43
2019-05-21T16:26:48.669Z,24.57
2019-05-21T16:29:18.144Z,26.50
2019-05-21T16:31:47.531Z,26.43
2019-05-21T16:34:17.378Z,27.97
2019-05-21T16:36:46.829Z,28.73
2019-05-21T16:39:17.276Z,30.63
2019-05-21T16:41:46.704Z,30.35
2019-05-21T16:44:16.067Z,29.53
2019-05-21T16:46:45.560Z,33.80
2019-05-21T16:49:15.074Z,26.33
2019-05-21T16:51:45.461Z,29.63
2019-05-21T16:54:14.929Z,24.83
2019-05-21T16:56:44.977Z,30.07
2019-05-21T16:59:14.991Z,27.43
2019-05-21T17:01:44.529Z,31.03
2019-05-21T17:04:13.927Z,32.37
2019-05-21T17:06:43.314Z,31.07
2019-05-21T17:09:14.106Z,31.43
2019-05-21T17:11:58.725Z,34.27
2019-05-21T17:14:14.850Z,32.33
2019-05-21T17:16:44.331Z,35.07
2019-05-21T17:19:13.759Z,35.93
2019-05-21T17:21:43.141Z,33.17
2019-05-21T17:24:12.924Z,38.20
2019-05-21T17:26:43.070Z,41.10
2019-05-21T17:29:12.607Z,37.73
2019-05-21T17:31:42.086Z,39.57
2019-05-21T17:34:11.518Z,35.27
2019-05-21T17:36:40.886Z,38.43
2019-05-21T17:39:10.336Z,39.77
2019-05-21T17:41:40.276Z,33.63
2019-05-21T17:44:09.648Z,34.43
2019-05-21T17:46:39.109Z,36.00
2019-05-21T17:49:08.641Z,32.17
2019-05-21T17:51:38.089Z,32.50
2019-05-21T17:54:09.534Z,30.73
2019-05-21T17:56:39.001Z,29.83
2019-05-21T17:59:08.829Z,29.20
2019-05-21T18:01:38.885Z,34.60
2019-05-21T18:04:08.467Z,33.10
2019-05-21T18:06:38.721Z,34.37
2019-05-21T18:09:11.843Z,32.90
2019-05-21T18:11:41.247Z,33.40
2019-05-21T18:14:10.931Z,33.37
2019-05-21T18:16:41.141Z,36.90
2019-05-21T18:19:11.308Z,39.93
2019-05-21T18:21:41.126Z,39.03
2019-05-21T18:24:12.345Z,37.87
2019-05-21T18:26:41.823Z,40.57
2019-05-21T18:29:11.409Z,46.97
2019-05-21T18:31:41.454Z,44.60
2019-05-21T18:34:11.031Z,44.30
2019-05-21T18:36:40.485Z,46.07
2019-05-21T18:39:09.876Z,43.23
2019-05-21T18:41:39.361Z,46.07
2019-05-21T18:44:08.807Z,46.03
2019-05-21T18:46:38.189Z,41.13
2019-05-21T18:49:07.682Z,39.60
2019-05-21T18:51:37.530Z,38.60
2019-05-21T18:54:08.939Z,33.33
2019-05-21T18:56:38.941Z,34.37
2019-05-21T18:59:08.474Z,35.60
2019-05-21T19:01:38.606Z,34.10
2019-05-21T19:04:08.495Z,38.97
2019-05-21T19:06:37.864Z,31.87
2019-05-21T19:09:08.410Z,33.03
2019-05-21T19:11:37.993Z,34.13
2019-05-21T19:14:07.857Z,36.77
2019-05-21T19:16:37.230Z,32.97
2019-05-21T19:19:06.634Z,31.63
2019-05-21T19:21:36.006Z,40.20
2019-05-21T19:24:05.466Z,32.67
2019-05-21T19:26:34.944Z,34.87
2019-05-21T19:29:07.671Z,33.10
2019-05-21T19:31:35.616Z,36.63
2019-05-21T19:34:05.408Z,35.07
2019-05-21T19:36:37.412Z,36.43
2019-05-21T19:39:08.097Z,39.40
2019-05-21T19:41:37.587Z,36.90
2019-05-21T19:44:07.418Z,37.27
2019-05-21T19:46:36.865Z,35.07
2019-05-21T19:49:07.849Z,33.13
2019-05-21T19:51:37.611Z,34.90
2019-05-21T19:54:07.735Z,37.23
2019-05-21T19:56:37.289Z,36.73
2019-05-21T19:59:07.310Z,37.10
2019-05-21T20:01:36.824Z,38.10
2019-05-21T20:04:09.746Z,45.70
2019-05-21T20:06:39.811Z,43.60
2019-05-21T20:09:13.546Z,52.30
2019-05-21T20:11:44.134Z,48.63
2019-05-21T20:14:13.586Z,42.83
2019-05-21T20:16:43.450Z,41.33
2019-05-21T20:19:14.850Z,41.17
2019-05-21T20:21:44.404Z,41.93
2019-05-21T20:24:14.506Z,41.70
2019-05-21T20:26:44.275Z,39.77
2019-05-21T20:29:13.956Z,37.47
2019-05-21T20:31:44.814Z,40.70
2019-05-21T20:34:14.433Z,42.20
2019-05-21T20:36:43.877Z,42.43
2019-05-21T20:39:14.889Z,39.70
2019-05-21T20:41:44.731Z,46.80
2019-05-21T20:44:15.956Z,40.70
2019-05-21T20:46:45.329Z,53.27
2019-05-21T20:49:15.759Z,56.10
2019-05-21T20:51:45.721Z,52.70
2019-05-21T20:54:16.866Z,52.67
2019-05-21T20:56:47.856Z,55.63
2019-05-21T20:59:17.309Z,47.57
2019-05-21T21:01:47.252Z,49.13
2019-05-21T21:04:16.890Z,39.77
2019-05-21T21:06:46.949Z,46.83
2019-05-21T21:09:16.453Z,47.13
2019-05-21T21:11:46.061Z,47.67
2019-05-21T21:14:18.392Z,44.77
2019-05-21T21:16:48.329Z,41.97
2019-05-21T21:19:17.806Z,36.80
2019-05-21T21:21:47.340Z,39.33
2019-05-21T21:24:16.814Z,45.67
2019-05-21T21:26:46.207Z,39.63
2019-05-21T21:29:15.613Z,46.43
2019-05-21T21:31:45.236Z,42.93
2019-05-21T21:34:16.257Z,43.10
2019-05-21T21:36:45.857Z,43.30
2019-05-21T21:39:16.297Z,42.30
2019-05-21T21:41:46.887Z,42.20
2019-05-21T21:44:31.577Z,40.53
2019-05-21T21:46:48.908Z,34.57
2019-05-21T21:49:19.465Z,39.00
2019-05-21T21:51:48.901Z,39.10
2019-05-21T21:54:18.617Z,37.20
2019-05-21T21:56:48.116Z,36.37
2019-05-21T21:59:17.693Z,42.03
2019-05-21T22:01:54.521Z,35.77
2019-05-21T22:04:30.993Z,38.23
2019-05-21T22:07:01.195Z,42.13
2019-05-21T22:09:31.931Z,36.80
2019-05-21T22:12:03.891Z,38.27
2019-05-21T22:14:49.209Z,40.27
2019-05-21T22:17:06.734Z,32.97
2019-05-21T22:19:37.463Z,29.90
2019-05-21T22:22:07.674Z,35.23
2019-05-21T22:24:37.127Z,30.30
2019-05-21T22:27:07.013Z,28.47
2019-05-21T22:29:37.118Z,31.30
2019-05-21T22:32:06.711Z,34.03
2019-05-21T22:34:36.278Z,34.50
2019-05-21T22:37:07.756Z,31.90
2019-05-21T22:39:37.705Z,32.53
2019-05-21T22:42:09.444Z,34.50
2019-05-21T22:44:39.156Z,33.80
2019-05-21T22:47:09.318Z,31.63
2019-05-21T22:49:38.872Z,31.93
2019-05-21T22:52:08.300Z,29.97
2019-05-21T22:54:37.680Z,29.03
2019-05-21T22:57:07.313Z,27.63
2019-05-21T22:59:36.680Z,23.77
2019-05-21T23:02:08.108Z,26.60
2019-05-21T23:04:37.722Z,25.50
2019-05-21T23:07:08.714Z,25.87
2019-05-21T23:09:38.102Z,22.83
2019-05-21T23:12:08.549Z,27.50
2019-05-21T23:14:37.934Z,20.43
2019-05-21T23:17:08.912Z,20.13
2019-05-21T23:19:38.886Z,18.43
2019-05-21T23:22:12.003Z,16.07
2019-05-21T23:24:42.101Z,16.47
2019-05-21T23:27:13.622Z,15.30
2019-05-21T23:29:43.370Z,18.13
2019-05-21T23:32:15.217Z,12.90
2019-05-21T23:34:46.190Z,14.93
2019-05-21T23:37:17.954Z,18.00
2019-05-21T23:39:49.694Z,13.63
2019-05-21T23:42:29.113Z,12.73
2019-05-21T23:44:50.727Z,11.47
2019-05-21T23:47:20.558Z,11.83
2019-05-21T23:49:50.179Z,13.37
2019-05-21T23:52:20.156Z,10.60
2019-05-21T23:54:52.581Z,15.60
2019-05-21T23:57:30.209Z,11.90
